createdAt,value
2022-08-05T00:03:48.733Z,1009.1
2022-08-05T00:08:55.161Z,1009.0
2022-08-05T00:14:27.845Z,1009.1
2022-08-05T00:20:20.377Z,1009.3
2022-08-05T00:24:16.266Z,1009.5
2022-08-05T00:29:25.560Z,1009.6
2022-08-05T00:34:56.127Z,1009.8
2022-08-05T00:39:58.966Z,1009.8
2022-08-05T00:44:39.894Z,1009.9
2022-08-05T00:49:51.747Z,1009.8
2022-08-05T00:54:52.722Z,1009.8
2022-08-05T00:59:49.087Z,1009.8
2022-08-05T01:08:40.660Z,1009.9
2022-08-05T01:10:11.880Z,1009.8
2022-08-05T01:15:35.100Z,1009.8
2022-08-05T01:20:25.724Z,1009.9
2022-08-05T01:25:56.194Z,1009.8
2022-08-05T01:30:38.529Z,1009.9
2022-08-05T01:36:04.925Z,1009.9
2022-08-05T01:40:51.279Z,1009.9
2022-08-05T01:45:57.739Z,1009.9
2022-08-05T01:51:51.919Z,1009.8
2022-08-05T01:58:11.777Z,1009.8
2022-08-05T02:01:17.110Z,1009.9
2022-08-05T02:06:37.553Z,1009.9
2022-08-05T02:11:33.323Z,1009.9
2022-08-05T02:17:00.146Z,1009.9
2022-08-05T02:21:43.335Z,1009.9
2022-08-05T02:26:54.922Z,1009.9
2022-08-05T02:31:45.254Z,1010.0
2022-08-05T02:37:01.650Z,1010.0
2022-08-05T02:42:01.266Z,1010.3
2022-08-05T02:47:14.417Z,1010.3
2022-08-05T02:52:40.850Z,1010.4
2022-08-05T02:58:19.949Z,1010.4
2022-08-05T03:08:06.693Z,1010.3
2022-08-05T03:12:52.173Z,1010.5
2022-08-05T03:18:29.812Z,1010.5
2022-08-05T03:23:24.967Z,1010.6
2022-08-05T03:28:36.539Z,1010.5
2022-08-05T03:33:50.863Z,1010.3
2022-08-05T03:38:33.345Z,1010.1
2022-08-05T03:44:09.024Z,1009.8
2022-08-05T03:55:52.519Z,1009.3
2022-08-05T04:00:15.997Z,1010.0
2022-08-05T04:05:40.216Z,1009.9
2022-08-05T04:12:28.200Z,1009.9
2022-08-05T04:14:54.908Z,1010.0
2022-08-05T04:20:17.348Z,1010.1
2022-08-05T04:25:57.332Z,1009.7
2022-08-05T04:30:30.234Z,1009.4
2022-08-05T04:35:17.528Z,1009.7
2022-08-05T04:40:44.563Z,1010.2
2022-08-05T04:46:13.416Z,1010.2
2022-08-05T04:51:01.459Z,1010.1
2022-08-05T04:56:32.203Z,1009.9
2022-08-05T05:00:50.683Z,1010.0
2022-08-05T05:09:05.490Z,1010.2
2022-08-05T05:11:01.242Z,1010.1
2022-08-05T05:16:30.441Z,1010.1
2022-08-05T05:21:14.004Z,1010.3
2022-08-05T05:26:10.464Z,1010.8
2022-08-05T05:31:26.858Z,1010.9
2022-08-05T05:36:33.392Z,1010.5
2022-08-05T05:42:39.883Z,1010.8
2022-08-05T05:48:11.294Z,1010.6
2022-08-05T05:52:38.012Z,1010.6
2022-08-05T05:57:42.693Z,1010.7
2022-08-05T06:02:46.376Z,1010.9
2022-08-05T06:12:05.147Z,1010.7
2022-08-05T06:13:23.670Z,1010.7
2022-08-05T06:18:31.161Z,1010.8
2022-08-05T06:23:11.947Z,1011.1
2022-08-05T06:28:42.357Z,1011.1
2022-08-05T06:34:36.804Z,1010.9
2022-08-05T06:38:36.666Z,1010.9
2022-08-05T06:43:59.826Z,1011.0
2022-08-05T06:48:47.003Z,1011.0
2022-08-05T06:54:12.030Z,1011.0
2022-08-05T06:58:57.356Z,1011.1
2022-08-05T07:04:03.555Z,1011.2
2022-08-05T07:09:37.464Z,1011.2
2022-08-05T07:14:20.388Z,1011.2
2022-08-05T07:20:10.636Z,1011.1
2022-08-05T07:24:29.948Z,1011.2
2022-08-05T07:30:27.815Z,1011.3
2022-08-05T07:34:42.549Z,1011.4
2022-08-05T07:40:26.359Z,1011.5
2022-08-05T07:44:54.923Z,1011.3
2022-08-05T07:50:01.302Z,1011.3
2022-08-05T07:54:57.673Z,1011.5
2022-08-05T08:01:26.447Z,1011.7
2022-08-05T08:05:20.669Z,1011.4
2022-08-05T08:10:27.049Z,1011.5
2022-08-05T08:16:35.791Z,1011.5
2022-08-05T08:21:00.009Z,1011.7
2022-08-05T08:26:00.179Z,1011.7
2022-08-05T08:30:47.406Z,1011.8
2022-08-05T08:35:53.790Z,1011.8
2022-08-05T08:41:05.476Z,1011.9
2022-08-05T08:46:16.221Z,1011.7
2022-08-05T08:52:03.214Z,1011.8
2022-08-05T08:56:27.096Z,1011.9
2022-08-05T09:01:31.288Z,1011.9
2022-08-05T09:06:37.610Z,1012.0
2022-08-05T09:11:51.698Z,1011.9
2022-08-05T09:16:50.382Z,1011.9
2022-08-05T09:23:05.278Z,1012.1
2022-08-05T09:27:03.248Z,1012.1
2022-08-05T09:32:51.178Z,1012.2
2022-08-05T09:37:16.796Z,1012.2
2022-08-05T09:42:24.109Z,1012.3
2022-08-05T09:47:56.134Z,1012.2
2022-08-05T09:52:35.285Z,1012.3
2022-08-05T09:57:43.278Z,1012.3
2022-08-05T10:03:12.092Z,1012.4
2022-08-05T10:08:36.632Z,1012.5
2022-08-05T10:13:00.943Z,1012.6
2022-08-05T10:18:07.301Z,1012.5
2022-08-05T10:23:33.980Z,1012.7
2022-08-05T10:28:29.304Z,1012.6
2022-08-05T10:33:28.851Z,1012.6
2022-08-05T10:38:23.038Z,1012.6
2022-08-05T10:43:39.437Z,1012.7
2022-08-05T10:49:09.782Z,1012.7
2022-08-05T10:53:52.184Z,1012.7
2022-08-05T10:58:58.600Z,1012.9
2022-08-05T11:04:09.028Z,1012.7
2022-08-05T11:09:16.968Z,1012.7
2022-08-05T11:14:17.774Z,1012.8
2022-08-05T11:20:16.575Z,1012.9
2022-08-05T11:24:31.171Z,1012.9
2022-08-05T11:29:37.303Z,1013.0
2022-08-05T11:34:51.525Z,1013.0
2022-08-05T11:39:49.878Z,1012.8
2022-08-05T11:46:15.572Z,1012.7
2022-08-05T11:50:02.841Z,1012.7
2022-08-05T11:55:13.297Z,1012.8
2022-08-05T12:00:15.533Z,1012.8
2022-08-05T12:05:18.027Z,1013.0
2022-08-05T12:10:43.037Z,1013.0
2022-08-05T12:15:38.041Z,1013.1
2022-08-05T12:20:41.419Z,1013.4
2022-08-05T12:25:47.653Z,1013.4
2022-08-05T12:30:54.041Z,1013.1
2022-08-05T12:36:00.655Z,1013.2
2022-08-05T12:41:12.475Z,1013.1
2022-08-05T12:47:07.616Z,1013.7
2022-08-05T12:52:14.006Z,1013.7
2022-08-05T12:57:01.375Z,1013.7
2022-08-05T13:02:08.192Z,1013.9
2022-08-05T13:07:04.139Z,1013.8
2022-08-05T13:12:28.494Z,1013.5
2022-08-05T13:17:31.927Z,1014.1
2022-08-05T13:24:05.469Z,1013.6
2022-08-05T13:28:52.481Z,1013.5
2022-08-05T13:32:50.413Z,1013.5
2022-08-05T13:39:24.407Z,1014.5
2022-08-05T13:42:58.891Z,1014.5
2022-08-05T13:48:08.784Z,1014.5
2022-08-05T13:53:01.724Z,1014.5
2022-08-05T13:58:42.148Z,1014.6
2022-08-05T14:03:38.515Z,1014.3
2022-08-05T14:09:32.969Z,1014.6
2022-08-05T14:13:37.248Z,1014.2
2022-08-05T14:19:04.504Z,1014.2
2022-08-05T14:23:49.998Z,1014.2
2022-08-05T14:29:20.409Z,1014.2
2022-08-05T14:34:26.808Z,1014.2
2022-08-05T14:40:33.312Z,1014.2
2022-08-05T14:44:20.251Z,1014.3
2022-08-05T14:49:21.938Z,1014.5
2022-08-05T14:55:40.452Z,1014.4
2022-08-05T14:59:35.719Z,1014.5
2022-08-05T15:04:41.185Z,1014.5
2022-08-05T15:09:51.374Z,1014.6
2022-08-05T15:14:49.709Z,1014.6
2022-08-05T15:20:00.316Z,1014.7
2022-08-05T15:24:57.250Z,1014.7
2022-08-05T15:30:37.779Z,1014.8
2022-08-05T15:35:45.181Z,1014.8
2022-08-05T15:40:58.324Z,1014.8
2022-08-05T15:45:38.851Z,1015.0
2022-08-05T15:50:39.295Z,1014.9
2022-08-05T15:56:01.283Z,1015.0
2022-08-05T16:01:11.987Z,1015.1
2022-08-05T16:06:19.920Z,1015.1
2022-08-05T16:11:04.843Z,1015.1
2022-08-05T16:16:11.206Z,1015.3
2022-08-05T16:22:00.835Z,1015.2
2022-08-05T16:26:48.027Z,1015.1
2022-08-05T16:31:57.038Z,1015.3
2022-08-05T16:36:36.751Z,1015.2
2022-08-05T16:42:15.814Z,1015.3
2022-08-05T16:46:56.151Z,1015.3
2022-08-05T16:52:00.110Z,1015.4
2022-08-05T16:56:57.498Z,1015.4
2022-08-05T17:02:18.120Z,1015.5
2022-08-05T17:07:43.808Z,1015.5
2022-08-05T17:12:50.966Z,1015.5
2022-08-05T17:18:34.694Z,1015.5
2022-08-05T17:23:05.011Z,1015.6
2022-08-05T17:27:47.363Z,1015.7
2022-08-05T17:32:53.738Z,1015.7
2022-08-05T17:38:00.419Z,1015.8
2022-08-05T17:43:07.691Z,1015.8
2022-08-05T17:48:12.858Z,1016.0
2022-08-05T17:53:09.238Z,1016.1
2022-08-05T18:08:45.773Z,1016.2
2022-08-05T18:13:51.664Z,1016.3
2022-08-05T18:24:22.883Z,1016.4
2022-08-05T18:29:40.716Z,1016.6
2022-08-05T18:34:16.588Z,1016.6
2022-08-05T18:39:42.094Z,1016.6
2022-08-05T18:44:35.181Z,1016.7
2022-08-05T18:54:45.915Z,1016.8
2022-08-05T19:00:02.534Z,1016.8
2022-08-05T19:05:02.273Z,1016.9
2022-08-05T19:10:05.268Z,1017.0
2022-08-05T19:16:28.527Z,1017.0
2022-08-05T19:20:06.892Z,1017.1
2022-08-05T19:25:30.079Z,1017.2
2022-08-05T19:30:29.742Z,1017.3
2022-08-05T19:35:55.872Z,1017.3
2022-08-05T19:40:42.533Z,1017.4
2022-08-05T19:45:54.333Z,1017.6
2022-08-05T19:50:55.350Z,1017.7
2022-08-05T19:56:14.066Z,1017.8
2022-08-05T20:01:08.200Z,1017.9
2022-08-05T20:06:37.782Z,1018.0
2022-08-05T20:11:40.941Z,1018.1
2022-08-05T20:16:47.321Z,1018.2
2022-08-05T20:21:33.692Z,1018.1
2022-08-05T20:27:41.950Z,1018.2
2022-08-05T20:31:41.981Z,1018.3
2022-08-05T20:37:18.110Z,1018.4
2022-08-05T20:42:21.706Z,1018.4
2022-08-05T20:47:06.731Z,1018.4
2022-08-05T20:52:02.063Z,1018.5
2022-08-05T20:57:42.213Z,1018.6
2022-08-05T21:02:26.780Z,1018.6
2022-08-05T21:07:55.298Z,1018.7
2022-08-05T21:13:08.863Z,1018.7
2022-08-05T21:17:44.026Z,1018.7
2022-08-05T21:22:40.505Z,1018.8
2022-08-05T21:27:56.940Z,1018.8
2022-08-05T21:33:37.000Z,1018.9
2022-08-05T21:38:09.699Z,1019.0
2022-08-05T21:43:24.176Z,1018.9
2022-08-05T21:48:22.621Z,1019.0
2022-08-05T21:53:59.442Z,1019.0
2022-08-05T21:58:36.606Z,1019.1
2022-08-05T22:03:52.340Z,1019.1
2022-08-05T22:08:48.149Z,1019.1
2022-08-05T22:14:32.445Z,1019.0
2022-08-05T22:19:01.253Z,1019.0
2022-08-05T22:24:12.990Z,1019.1
2022-08-05T22:29:14.412Z,1019.2
2022-08-05T22:34:40.436Z,1019.2
2022-08-05T22:39:50.850Z,1019.3
2022-08-05T22:44:33.319Z,1019.3
2022-08-05T22:50:22.822Z,1019.4
2022-08-05T22:55:19.167Z,1019.5
2022-08-05T22:59:54.432Z,1019.5
2022-08-05T23:05:01.984Z,1019.5
2022-08-05T23:10:06.951Z,1019.6
2022-08-05T23:15:13.429Z,1019.6
2022-08-05T23:20:15.525Z,1019.6
2022-08-05T23:25:55.296Z,1019.6
2022-08-05T23:30:32.602Z,1019.6
2022-08-05T23:35:59.056Z,1019.6
2022-08-05T23:41:09.445Z,1019.7
2022-08-05T23:45:41.757Z,1019.6
2022-08-05T23:51:02.166Z,1019.7
2022-08-05T23:56:04.540Z,1019.8
